sensor_id;sensor_type;location;lat;lon;timestamp;P1;durP1;ratioP1;P2;durP2;ratioP2
21315;SDS011;10817;55.820;13.030;2023-07-28T00:02:08;26.55;;;11.45;;
21315;SDS011;10817;55.820;13.030;2023-07-28T00:04:37;20.67;;;11.90;;
21315;SDS011;10817;55.820;13.030;2023-07-28T00:07:04;21.65;;;12.30;;
21315;SDS011;10817;55.820;13.030;2023-07-28T00:09:32;21.33;;;11.90;;
21315;SDS011;10817;55.820;13.030;2023-07-28T00:11:59;19.17;;;11.35;;
21315;SDS011;10817;55.820;13.030;2023-07-28T00:14:27;22.63;;;11.32;;
21315;SDS011;10817;55.820;13.030;2023-07-28T00:16:55;15.93;;;11.20;;
21315;SDS011;10817;55.820;13.030;2023-07-28T00:19:23;22.70;;;12.40;;
21315;SDS011;10817;55.820;13.030;2023-07-28T00:21:51;17.33;;;12.40;;
21315;SDS011;10817;55.820;13.030;2023-07-28T00:24:18;22.05;;;11.80;;
21315;SDS011;10817;55.820;13.030;2023-07-28T00:26:46;20.40;;;11.02;;
21315;SDS011;10817;55.820;13.030;2023-07-28T00:29:13;17.48;;;11.57;;
21315;SDS011;10817;55.820;13.030;2023-07-28T00:31:40;20.38;;;11.23;;
21315;SDS011;10817;55.820;13.030;2023-07-28T00:34:07;24.55;;;11.68;;
21315;SDS011;10817;55.820;13.030;2023-07-28T00:36:35;19.90;;;12.43;;
21315;SDS011;10817;55.820;13.030;2023-07-28T00:39:03;14.60;;;10.27;;
21315;SDS011;10817;55.820;13.030;2023-07-28T00:41:31;19.30;;;11.48;;
21315;SDS011;10817;55.820;13.030;2023-07-28T00:43:59;14.77;;;10.60;;
21315;SDS011;10817;55.820;13.030;2023-07-28T00:46:26;33.67;;;11.70;;
21315;SDS011;10817;55.820;13.030;2023-07-28T00:48:53;20.25;;;11.75;;
21315;SDS011;10817;55.820;13.030;2023-07-28T00:51:20;18.10;;;11.73;;
21315;SDS011;10817;55.820;13.030;2023-07-28T00:53:48;16.83;;;10.95;;
21315;SDS011;10817;55.820;13.030;2023-07-28T00:56:18;18.02;;;10.45;;
21315;SDS011;10817;55.820;13.030;2023-07-28T00:58:47;18.52;;;10.85;;
21315;SDS011;10817;55.820;13.030;2023-07-28T01:01:15;13.75;;;10.45;;
21315;SDS011;10817;55.820;13.030;2023-07-28T01:03:42;12.13;;;9.27;;
21315;SDS011;10817;55.820;13.030;2023-07-28T01:06:13;15.90;;;9.02;;
21315;SDS011;10817;55.820;13.030;2023-07-28T01:08:42;13.48;;;8.65;;
21315;SDS011;10817;55.820;13.030;2023-07-28T01:11:13;11.82;;;9.32;;
21315;SDS011;10817;55.820;13.030;2023-07-28T01:13:42;16.35;;;9.70;;
21315;SDS011;10817;55.820;13.030;2023-07-28T01:16:09;18.38;;;10.95;;
21315;SDS011;10817;55.820;13.030;2023-07-28T01:18:36;19.25;;;9.98;;
21315;SDS011;10817;55.820;13.030;2023-07-28T01:21:04;14.90;;;8.50;;
21315;SDS011;10817;55.820;13.030;2023-07-28T01:23:35;19.95;;;8.52;;
21315;SDS011;10817;55.820;13.030;2023-07-28T01:26:05;17.00;;;9.50;;
21315;SDS011;10817;55.820;13.030;2023-07-28T01:28:34;17.92;;;9.98;;
21315;SDS011;10817;55.820;13.030;2023-07-28T01:31:02;17.52;;;9.80;;
21315;SDS011;10817;55.820;13.030;2023-07-28T01:33:29;16.33;;;10.70;;
21315;SDS011;10817;55.820;13.030;2023-07-28T01:35:56;18.33;;;10.52;;
21315;SDS011;10817;55.820;13.030;2023-07-28T01:38:26;16.65;;;8.50;;
21315;SDS011;10817;55.820;13.030;2023-07-28T01:40:53;12.55;;;8.98;;
21315;SDS011;10817;55.820;13.030;2023-07-28T01:43:21;16.98;;;10.10;;
21315;SDS011;10817;55.820;13.030;2023-07-28T01:45:49;18.88;;;9.95;;
21315;SDS011;10817;55.820;13.030;2023-07-28T01:48:16;15.10;;;9.65;;
21315;SDS011;10817;55.820;13.030;2023-07-28T01:50:44;14.43;;;9.70;;
21315;SDS011;10817;55.820;13.030;2023-07-28T01:53:11;22.40;;;12.05;;
21315;SDS011;10817;55.820;13.030;2023-07-28T01:55:38;22.13;;;11.43;;
21315;SDS011;10817;55.820;13.030;2023-07-28T01:58:05;16.95;;;11.57;;
21315;SDS011;10817;55.820;13.030;2023-07-28T02:00:33;24.48;;;11.00;;
21315;SDS011;10817;55.820;13.030;2023-07-28T02:03:01;14.10;;;8.57;;
21315;SDS011;10817;55.820;13.030;2023-07-28T02:05:29;22.30;;;9.80;;
21315;SDS011;10817;55.820;13.030;2023-07-28T02:07:57;15.23;;;8.57;;
21315;SDS011;10817;55.820;13.030;2023-07-28T02:10:25;18.52;;;8.40;;
21315;SDS011;10817;55.820;13.030;2023-07-28T02:12:52;13.70;;;7.90;;
21315;SDS011;10817;55.820;13.030;2023-07-28T02:15:20;15.38;;;8.25;;
21315;SDS011;10817;55.820;13.030;2023-07-28T02:17:47;11.88;;;7.75;;
21315;SDS011;10817;55.820;13.030;2023-07-28T02:20:15;13.38;;;7.10;;
21315;SDS011;10817;55.820;13.030;2023-07-28T02:22:42;15.10;;;7.85;;
21315;SDS011;10817;55.820;13.030;2023-07-28T02:25:10;18.00;;;8.40;;
21315;SDS011;10817;55.820;13.030;2023-07-28T02:27:37;14.13;;;7.97;;
21315;SDS011;10817;55.820;13.030;2023-07-28T02:30:05;19.75;;;7.50;;
21315;SDS011;10817;55.820;13.030;2023-07-28T02:32:32;28.45;;;9.10;;
21315;SDS011;10817;55.820;13.030;2023-07-28T02:34:59;29.50;;;9.85;;
21315;SDS011;10817;55.820;13.030;2023-07-28T02:37:28;28.48;;;10.90;;
21315;SDS011;10817;55.820;13.030;2023-07-28T02:39:55;20.55;;;9.32;;
21315;SDS011;10817;55.820;13.030;2023-07-28T02:42:22;25.35;;;9.13;;
21315;SDS011;10817;55.820;13.030;2023-07-28T02:44:50;14.50;;;9.30;;
21315;SDS011;10817;55.820;13.030;2023-07-28T02:47:17;26.40;;;8.65;;
21315;SDS011;10817;55.820;13.030;2023-07-28T02:49:44;19.70;;;8.77;;
21315;SDS011;10817;55.820;13.030;2023-07-28T02:52:11;23.63;;;10.25;;
21315;SDS011;10817;55.820;13.030;2023-07-28T02:54:40;29.65;;;10.52;;
21315;SDS011;10817;55.820;13.030;2023-07-28T02:57:07;16.70;;;9.30;;
21315;SDS011;10817;55.820;13.030;2023-07-28T02:59:36;21.40;;;9.13;;
21315;SDS011;10817;55.820;13.030;2023-07-28T03:02:03;17.20;;;8.65;;
21315;SDS011;10817;55.820;13.030;2023-07-28T03:04:30;17.77;;;8.27;;
21315;SDS011;10817;55.820;13.030;2023-07-28T03:07:20;21.25;;;8.98;;
21315;SDS011;10817;55.820;13.030;2023-07-28T03:09:56;20.80;;;9.00;;
21315;SDS011;10817;55.820;13.030;2023-07-28T03:12:24;31.33;;;9.80;;
21315;SDS011;10817;55.820;13.030;2023-07-28T03:14:51;23.40;;;8.27;;
21315;SDS011;10817;55.820;13.030;2023-07-28T03:17:19;12.82;;;7.57;;
21315;SDS011;10817;55.820;13.030;2023-07-28T03:19:46;18.23;;;7.28;;
21315;SDS011;10817;55.820;13.030;2023-07-28T03:22:13;15.77;;;7.10;;
21315;SDS011;10817;55.820;13.030;2023-07-28T03:24:40;15.43;;;7.70;;
21315;SDS011;10817;55.820;13.030;2023-07-28T03:27:12;21.08;;;8.93;;
21315;SDS011;10817;55.820;13.030;2023-07-28T03:29:39;23.88;;;8.57;;
21315;SDS011;10817;55.820;13.030;2023-07-28T03:32:07;25.55;;;9.20;;
21315;SDS011;10817;55.820;13.030;2023-07-28T03:34:34;20.65;;;8.55;;
21315;SDS011;10817;55.820;13.030;2023-07-28T03:37:04;24.63;;;8.93;;
21315;SDS011;10817;55.820;13.030;2023-07-28T03:39:32;15.73;;;9.45;;
21315;SDS011;10817;55.820;13.030;2023-07-28T03:41:59;18.92;;;8.68;;
21315;SDS011;10817;55.820;13.030;2023-07-28T03:44:29;13.20;;;7.78;;
21315;SDS011;10817;55.820;13.030;2023-07-28T03:46:56;20.20;;;8.20;;
21315;SDS011;10817;55.820;13.030;2023-07-28T03:49:23;21.52;;;9.50;;
21315;SDS011;10817;55.820;13.030;2023-07-28T03:51:51;16.33;;;9.82;;
21315;SDS011;10817;55.820;13.030;2023-07-28T03:54:18;23.75;;;10.30;;
21315;SDS011;10817;55.820;13.030;2023-07-28T03:56:45;13.32;;;8.60;;
21315;SDS011;10817;55.820;13.030;2023-07-28T03:59:13;12.70;;;8.57;;
21315;SDS011;10817;55.820;13.030;2023-07-28T04:01:41;24.08;;;10.93;;
21315;SDS011;10817;55.820;13.030;2023-07-28T04:04:08;21.20;;;10.57;;
21315;SDS011;10817;55.820;13.030;2023-07-28T04:06:39;17.63;;;9.77;;
21315;SDS011;10817;55.820;13.030;2023-07-28T04:09:07;26.70;;;10.93;;
21315;SDS011;10817;55.820;13.030;2023-07-28T04:11:34;24.75;;;11.10;;
21315;SDS011;10817;55.820;13.030;2023-07-28T04:14:01;24.25;;;10.57;;
21315;SDS011;10817;55.820;13.030;2023-07-28T04:16:29;16.77;;;10.07;;
21315;SDS011;10817;55.820;13.030;2023-07-28T04:18:57;43.15;;;13.07;;
21315;SDS011;10817;55.820;13.030;2023-07-28T04:21:25;34.55;;;12.65;;
21315;SDS011;10817;55.820;13.030;2023-07-28T04:23:52;34.47;;;12.90;;
21315;SDS011;10817;55.820;13.030;2023-07-28T04:26:19;39.40;;;14.85;;
21315;SDS011;10817;55.820;13.030;2023-07-28T04:28:51;31.00;;;14.60;;
21315;SDS011;10817;55.820;13.030;2023-07-28T04:31:19;33.92;;;15.02;;
21315;SDS011;10817;55.820;13.030;2023-07-28T04:33:58;31.15;;;12.70;;
21315;SDS011;10817;55.820;13.030;2023-07-28T04:36:38;25.00;;;12.30;;
21315;SDS011;10817;55.820;13.030;2023-07-28T04:39:05;27.70;;;13.32;;
21315;SDS011;10817;55.820;13.030;2023-07-28T04:41:32;31.27;;;14.15;;
21315;SDS011;10817;55.820;13.030;2023-07-28T04:44:00;26.10;;;14.40;;
21315;SDS011;10817;55.820;13.030;2023-07-28T04:46:32;31.65;;;15.43;;
21315;SDS011;10817;55.820;13.030;2023-07-28T04:49:04;31.95;;;15.68;;
21315;SDS011;10817;55.820;13.030;2023-07-28T04:51:50;39.28;;;16.48;;
21315;SDS011;10817;55.820;13.030;2023-07-28T04:54:56;47.70;;;16.52;;
21315;SDS011;10817;55.820;13.030;2023-07-28T04:57:23;33.92;;;16.00;;
21315;SDS011;10817;55.820;13.030;2023-07-28T04:59:50;36.45;;;16.15;;
21315;SDS011;10817;55.820;13.030;2023-07-28T05:02:18;36.67;;;17.70;;
21315;SDS011;10817;55.820;13.030;2023-07-28T05:04:46;38.72;;;18.13;;
21315;SDS011;10817;55.820;13.030;2023-07-28T05:07:14;36.67;;;17.83;;
21315;SDS011;10817;55.820;13.030;2023-07-28T05:09:41;40.25;;;17.65;;
21315;SDS011;10817;55.820;13.030;2023-07-28T05:12:10;44.17;;;17.30;;
21315;SDS011;10817;55.820;13.030;2023-07-28T05:14:42;37.10;;;18.60;;
21315;SDS011;10817;55.820;13.030;2023-07-28T05:17:11;38.33;;;17.65;;
21315;SDS011;10817;55.820;13.030;2023-07-28T05:19:44;45.42;;;18.38;;
21315;SDS011;10817;55.820;13.030;2023-07-28T05:22:31;49.15;;;17.90;;
21315;SDS011;10817;55.820;13.030;2023-07-28T05:24:58;45.20;;;19.70;;
21315;SDS011;10817;55.820;13.030;2023-07-28T05:27:29;44.38;;;18.92;;
21315;SDS011;10817;55.820;13.030;2023-07-28T05:29:56;49.70;;;20.67;;
21315;SDS011;10817;55.820;13.030;2023-07-28T05:32:24;42.58;;;19.75;;
21315;SDS011;10817;55.820;13.030;2023-07-28T05:35:06;52.50;;;22.02;;
21315;SDS011;10817;55.820;13.030;2023-07-28T05:37:35;49.25;;;19.85;;
21315;SDS011;10817;55.820;13.030;2023-07-28T05:40:03;50.70;;;20.67;;
21315;SDS011;10817;55.820;13.030;2023-07-28T05:42:32;49.83;;;20.60;;
21315;SDS011;10817;55.820;13.030;2023-07-28T05:45:00;51.30;;;22.73;;
21315;SDS011;10817;55.820;13.030;2023-07-28T05:47:27;60.03;;;26.55;;
21315;SDS011;10817;55.820;13.030;2023-07-28T05:49:54;64.00;;;27.67;;
21315;SDS011;10817;55.820;13.030;2023-07-28T05:52:22;54.30;;;25.88;;
21315;SDS011;10817;55.820;13.030;2023-07-28T05:54:53;53.92;;;27.58;;
21315;SDS011;10817;55.820;13.030;2023-07-28T05:57:20;50.35;;;24.95;;
21315;SDS011;10817;55.820;13.030;2023-07-28T05:59:47;52.30;;;25.23;;
21315;SDS011;10817;55.820;13.030;2023-07-28T06:02:15;50.13;;;26.95;;
21315;SDS011;10817;55.820;13.030;2023-07-28T06:04:50;54.58;;;25.05;;
21315;SDS011;10817;55.820;13.030;2023-07-28T06:07:17;48.22;;;25.35;;
21315;SDS011;10817;55.820;13.030;2023-07-28T06:09:44;48.92;;;25.30;;
21315;SDS011;10817;55.820;13.030;2023-07-28T06:12:13;43.08;;;22.90;;
21315;SDS011;10817;55.820;13.030;2023-07-28T06:14:41;40.17;;;22.75;;
21315;SDS011;10817;55.820;13.030;2023-07-28T06:17:10;34.75;;;20.35;;
21315;SDS011;10817;55.820;13.030;2023-07-28T06:19:37;38.63;;;20.15;;
21315;SDS011;10817;55.820;13.030;2023-07-28T06:22:04;39.85;;;20.17;;
21315;SDS011;10817;55.820;13.030;2023-07-28T06:24:36;33.80;;;19.33;;
21315;SDS011;10817;55.820;13.030;2023-07-28T06:27:05;32.92;;;18.58;;
21315;SDS011;10817;55.820;13.030;2023-07-28T06:29:37;32.40;;;20.85;;
21315;SDS011;10817;55.820;13.030;2023-07-28T06:32:05;37.67;;;19.23;;
21315;SDS011;10817;55.820;13.030;2023-07-28T06:34:33;30.98;;;18.00;;
21315;SDS011;10817;55.820;13.030;2023-07-28T06:37:00;33.38;;;16.58;;
21315;SDS011;10817;55.820;13.030;2023-07-28T06:39:28;28.13;;;16.40;;
21315;SDS011;10817;55.820;13.030;2023-07-28T06:41:55;21.90;;;12.90;;
21315;SDS011;10817;55.820;13.030;2023-07-28T06:44:25;18.73;;;11.80;;
21315;SDS011;10817;55.820;13.030;2023-07-28T06:46:53;20.88;;;11.30;;
21315;SDS011;10817;55.820;13.030;2023-07-28T06:49:21;17.45;;;9.10;;
21315;SDS011;10817;55.820;13.030;2023-07-28T06:51:48;17.23;;;8.80;;
21315;SDS011;10817;55.820;13.030;2023-07-28T06:54:17;20.17;;;8.07;;
21315;SDS011;10817;55.820;13.030;2023-07-28T06:56:44;13.75;;;7.80;;
21315;SDS011;10817;55.820;13.030;2023-07-28T06:59:11;9.70;;;6.18;;
21315;SDS011;10817;55.820;13.030;2023-07-28T07:01:39;10.88;;;6.28;;
21315;SDS011;10817;55.820;13.030;2023-07-28T07:04:07;11.18;;;6.50;;
21315;SDS011;10817;55.820;13.030;2023-07-28T07:06:36;10.25;;;6.13;;
21315;SDS011;10817;55.820;13.030;2023-07-28T07:09:04;7.07;;;4.97;;
21315;SDS011;10817;55.820;13.030;2023-07-28T07:11:31;11.00;;;5.20;;
21315;SDS011;10817;55.820;13.030;2023-07-28T07:13:58;9.07;;;5.50;;
21315;SDS011;10817;55.820;13.030;2023-07-28T07:16:26;13.70;;;5.95;;
21315;SDS011;10817;55.820;13.030;2023-07-28T07:18:53;9.55;;;4.93;;
21315;SDS011;10817;55.820;13.030;2023-07-28T07:21:22;8.25;;;4.93;;
21315;SDS011;10817;55.820;13.030;2023-07-28T07:23:49;8.80;;;5.18;;
21315;SDS011;10817;55.820;13.030;2023-07-28T07:26:25;7.63;;;4.15;;
21315;SDS011;10817;55.820;13.030;2023-07-28T07:28:52;8.20;;;4.88;;
21315;SDS011;10817;55.820;13.030;2023-07-28T07:31:19;7.70;;;4.30;;
21315;SDS011;10817;55.820;13.030;2023-07-28T07:33:47;6.50;;;4.28;;
21315;SDS011;10817;55.820;13.030;2023-07-28T07:36:15;5.05;;;3.58;;
21315;SDS011;10817;55.820;13.030;2023-07-28T07:38:43;5.97;;;3.80;;
21315;SDS011;10817;55.820;13.030;2023-07-28T07:41:11;6.88;;;3.60;;
21315;SDS011;10817;55.820;13.030;2023-07-28T07:43:41;7.28;;;3.85;;
21315;SDS011;10817;55.820;13.030;2023-07-28T07:46:08;7.07;;;4.13;;
21315;SDS011;10817;55.820;13.030;2023-07-28T07:48:36;6.72;;;4.00;;
21315;SDS011;10817;55.820;13.030;2023-07-28T07:51:03;10.75;;;3.90;;
21315;SDS011;10817;55.820;13.030;2023-07-28T07:53:30;5.53;;;3.95;;
21315;SDS011;10817;55.820;13.030;2023-07-28T07:55:58;5.22;;;3.33;;
21315;SDS011;10817;55.820;13.030;2023-07-28T07:58:26;5.63;;;3.50;;
21315;SDS011;10817;55.820;13.030;2023-07-28T08:00:53;5.00;;;3.33;;
21315;SDS011;10817;55.820;13.030;2023-07-28T08:03:20;5.10;;;3.58;;
21315;SDS011;10817;55.820;13.030;2023-07-28T08:05:47;6.15;;;3.35;;
21315;SDS011;10817;55.820;13.030;2023-07-28T08:08:15;7.60;;;3.40;;
21315;SDS011;10817;55.820;13.030;2023-07-28T08:10:44;6.13;;;2.78;;
21315;SDS011;10817;55.820;13.030;2023-07-28T08:13:13;3.60;;;2.45;;
21315;SDS011;10817;55.820;13.030;2023-07-28T08:15:40;4.97;;;2.90;;
21315;SDS011;10817;55.820;13.030;2023-07-28T08:18:10;5.80;;;3.05;;
21315;SDS011;10817;55.820;13.030;2023-07-28T08:20:38;6.07;;;3.13;;
21315;SDS011;10817;55.820;13.030;2023-07-28T08:23:05;3.42;;;2.25;;
21315;SDS011;10817;55.820;13.030;2023-07-28T08:25:32;3.85;;;2.53;;
21315;SDS011;10817;55.820;13.030;2023-07-28T08:28:00;4.47;;;2.58;;
21315;SDS011;10817;55.820;13.030;2023-07-28T08:30:29;5.40;;;2.55;;
21315;SDS011;10817;55.820;13.030;2023-07-28T08:32:56;4.05;;;2.63;;
21315;SDS011;10817;55.820;13.030;2023-07-28T08:35:24;4.85;;;2.78;;
21315;SDS011;10817;55.820;13.030;2023-07-28T08:37:51;5.97;;;3.13;;
21315;SDS011;10817;55.820;13.030;2023-07-28T08:40:18;5.13;;;2.80;;
21315;SDS011;10817;55.820;13.030;2023-07-28T08:42:45;4.97;;;2.95;;
21315;SDS011;10817;55.820;13.030;2023-07-28T08:45:14;7.00;;;3.83;;
21315;SDS011;10817;55.820;13.030;2023-07-28T08:47:43;6.60;;;3.97;;
21315;SDS011;10817;55.820;13.030;2023-07-28T08:50:10;7.10;;;3.70;;
21315;SDS011;10817;55.820;13.030;2023-07-28T08:52:37;9.13;;;4.03;;
21315;SDS011;10817;55.820;13.030;2023-07-28T08:55:05;8.57;;;4.00;;
21315;SDS011;10817;55.820;13.030;2023-07-28T08:57:32;6.82;;;4.00;;
21315;SDS011;10817;55.820;13.030;2023-07-28T08:59:59;9.43;;;3.80;;
21315;SDS011;10817;55.820;13.030;2023-07-28T09:02:33;7.75;;;4.47;;
21315;SDS011;10817;55.820;13.030;2023-07-28T09:05:02;7.78;;;3.30;;
21315;SDS011;10817;55.820;13.030;2023-07-28T09:07:33;7.43;;;4.00;;
21315;SDS011;10817;55.820;13.030;2023-07-28T09:10:01;5.32;;;3.50;;
21315;SDS011;10817;55.820;13.030;2023-07-28T09:12:30;6.90;;;4.03;;
21315;SDS011;10817;55.820;13.030;2023-07-28T09:14:57;8.07;;;4.50;;
21315;SDS011;10817;55.820;13.030;2023-07-28T09:17:25;7.32;;;3.78;;
21315;SDS011;10817;55.820;13.030;2023-07-28T09:19:52;8.38;;;3.55;;
21315;SDS011;10817;55.820;13.030;2023-07-28T09:22:21;9.30;;;3.70;;
21315;SDS011;10817;55.820;13.030;2023-07-28T09:24:49;6.22;;;3.72;;
21315;SDS011;10817;55.820;13.030;2023-07-28T09:27:21;8.45;;;3.20;;
21315;SDS011;10817;55.820;13.030;2023-07-28T09:29:49;6.18;;;3.83;;
21315;SDS011;10817;55.820;13.030;2023-07-28T09:32:17;6.18;;;3.78;;
21315;SDS011;10817;55.820;13.030;2023-07-28T09:35:04;8.30;;;4.18;;
21315;SDS011;10817;55.820;13.030;2023-07-28T09:37:36;8.23;;;3.50;;
21315;SDS011;10817;55.820;13.030;2023-07-28T09:40:05;3.97;;;3.33;;
21315;SDS011;10817;55.820;13.030;2023-07-28T09:42:35;5.25;;;3.65;;
21315;SDS011;10817;55.820;13.030;2023-07-28T09:48:48;4.93;;;3.10;;
21315;SDS011;10817;55.820;13.030;2023-07-28T09:51:18;7.68;;;3.28;;
21315;SDS011;10817;55.820;13.030;2023-07-28T09:53:48;6.45;;;3.03;;
21315;SDS011;10817;55.820;13.030;2023-07-28T09:56:15;5.97;;;2.80;;
21315;SDS011;10817;55.820;13.030;2023-07-28T09:58:46;6.75;;;2.92;;
21315;SDS011;10817;55.820;13.030;2023-07-28T10:01:16;7.80;;;3.50;;
21315;SDS011;10817;55.820;13.030;2023-07-28T10:03:43;5.00;;;2.78;;
21315;SDS011;10817;55.820;13.030;2023-07-28T10:06:11;4.82;;;2.90;;
21315;SDS011;10817;55.820;13.030;2023-07-28T10:08:38;4.28;;;2.35;;
21315;SDS011;10817;55.820;13.030;2023-07-28T10:11:07;8.23;;;2.70;;
21315;SDS011;10817;55.820;13.030;2023-07-28T10:13:40;4.90;;;2.80;;
21315;SDS011;10817;55.820;13.030;2023-07-28T10:16:08;6.75;;;2.75;;
21315;SDS011;10817;55.820;13.030;2023-07-28T10:18:36;4.38;;;2.20;;
21315;SDS011;10817;55.820;13.030;2023-07-28T10:21:04;6.75;;;2.50;;
21315;SDS011;10817;55.820;13.030;2023-07-28T10:23:32;3.65;;;2.38;;
21315;SDS011;10817;55.820;13.030;2023-07-28T10:26:00;4.22;;;2.20;;
21315;SDS011;10817;55.820;13.030;2023-07-28T10:28:33;5.20;;;2.30;;
21315;SDS011;10817;55.820;13.030;2023-07-28T10:31:04;6.20;;;2.63;;
21315;SDS011;10817;55.820;13.030;2023-07-28T10:33:32;3.97;;;2.45;;
21315;SDS011;10817;55.820;13.030;2023-07-28T10:36:08;5.70;;;2.60;;
21315;SDS011;10817;55.820;13.030;2023-07-28T10:38:37;4.00;;;2.58;;
21315;SDS011;10817;55.820;13.030;2023-07-28T10:41:05;3.38;;;2.40;;
21315;SDS011;10817;55.820;13.030;2023-07-28T10:43:35;4.85;;;2.28;;
21315;SDS011;10817;55.820;13.030;2023-07-28T10:46:04;4.18;;;2.40;;
21315;SDS011;10817;55.820;13.030;2023-07-28T10:48:33;7.18;;;2.78;;
21315;SDS011;10817;55.820;13.030;2023-07-28T10:51:01;3.75;;;2.30;;
21315;SDS011;10817;55.820;13.030;2023-07-28T10:53:28;3.63;;;2.30;;
21315;SDS011;10817;55.820;13.030;2023-07-28T10:55:55;2.80;;;2.15;;
21315;SDS011;10817;55.820;13.030;2023-07-28T10:58:22;4.60;;;2.22;;
21315;SDS011;10817;55.820;13.030;2023-07-28T11:00:51;5.22;;;2.65;;
21315;SDS011;10817;55.820;13.030;2023-07-28T11:03:18;2.90;;;2.17;;
21315;SDS011;10817;55.820;13.030;2023-07-28T11:05:47;3.92;;;2.10;;
21315;SDS011;10817;55.820;13.030;2023-07-28T11:08:15;3.08;;;1.92;;
21315;SDS011;10817;55.820;13.030;2023-07-28T11:10:43;3.88;;;2.38;;
21315;SDS011;10817;55.820;13.030;2023-07-28T11:13:10;3.55;;;2.30;;
21315;SDS011;10817;55.820;13.030;2023-07-28T11:15:37;2.72;;;2.20;;
21315;SDS011;10817;55.820;13.030;2023-07-28T11:18:06;3.35;;;2.10;;
21315;SDS011;10817;55.820;13.030;2023-07-28T11:20:35;3.45;;;2.08;;
21315;SDS011;10817;55.820;13.030;2023-07-28T11:23:02;3.15;;;2.25;;
21315;SDS011;10817;55.820;13.030;2023-07-28T11:25:30;2.88;;;2.10;;
21315;SDS011;10817;55.820;13.030;2023-07-28T11:28:00;5.63;;;1.98;;
21315;SDS011;10817;55.820;13.030;2023-07-28T11:30:28;3.65;;;2.15;;
21315;SDS011;10817;55.820;13.030;2023-07-28T11:32:55;2.38;;;1.80;;
21315;SDS011;10817;55.820;13.030;2023-07-28T11:35:24;2.83;;;2.20;;
21315;SDS011;10817;55.820;13.030;2023-07-28T11:37:51;3.63;;;2.10;;
21315;SDS011;10817;55.820;13.030;2023-07-28T11:40:20;4.15;;;2.30;;
21315;SDS011;10817;55.820;13.030;2023-07-28T11:42:48;5.30;;;2.13;;
21315;SDS011;10817;55.820;13.030;2023-07-28T11:45:16;3.38;;;1.80;;
21315;SDS011;10817;55.820;13.030;2023-07-28T11:47:57;4.28;;;2.10;;
21315;SDS011;10817;55.820;13.030;2023-07-28T11:50:27;3.60;;;2.15;;
21315;SDS011;10817;55.820;13.030;2023-07-28T11:52:54;7.32;;;2.58;;
21315;SDS011;10817;55.820;13.030;2023-07-28T11:55:22;3.88;;;2.33;;
21315;SDS011;10817;55.820;13.030;2023-07-28T11:57:50;4.25;;;2.15;;
21315;SDS011;10817;55.820;13.030;2023-07-28T12:00:18;3.15;;;2.00;;
21315;SDS011;10817;55.820;13.030;2023-07-28T12:02:59;3.75;;;2.50;;
21315;SDS011;10817;55.820;13.030;2023-07-28T12:05:28;2.90;;;2.00;;
21315;SDS011;10817;55.820;13.030;2023-07-28T12:07:55;3.78;;;2.13;;
21315;SDS011;10817;55.820;13.030;2023-07-28T12:10:22;2.58;;;1.65;;
21315;SDS011;10817;55.820;13.030;2023-07-28T12:12:49;2.97;;;1.83;;
21315;SDS011;10817;55.820;13.030;2023-07-28T12:15:21;4.20;;;2.05;;
21315;SDS011;10817;55.820;13.030;2023-07-28T12:18:05;4.85;;;1.80;;
21315;SDS011;10817;55.820;13.030;2023-07-28T12:20:35;2.55;;;2.00;;
21315;SDS011;10817;55.820;13.030;2023-07-28T12:23:02;3.13;;;1.98;;
21315;SDS011;10817;55.820;13.030;2023-07-28T12:25:30;2.78;;;2.03;;
21315;SDS011;10817;55.820;13.030;2023-07-28T12:27:57;3.05;;;2.03;;
21315;SDS011;10817;55.820;13.030;2023-07-28T12:30:24;3.25;;;1.90;;
21315;SDS011;10817;55.820;13.030;2023-07-28T12:32:52;3.05;;;1.70;;
21315;SDS011;10817;55.820;13.030;2023-07-28T12:35:19;3.28;;;1.70;;
21315;SDS011;10817;55.820;13.030;2023-07-28T12:37:50;2.80;;;1.85;;
21315;SDS011;10817;55.820;13.030;2023-07-28T12:40:17;3.28;;;1.80;;
21315;SDS011;10817;55.820;13.030;2023-07-28T12:42:45;3.15;;;1.80;;
21315;SDS011;10817;55.820;13.030;2023-07-28T12:45:13;4.68;;;1.77;;
21315;SDS011;10817;55.820;13.030;2023-07-28T12:47:40;2.05;;;1.65;;
21315;SDS011;10817;55.820;13.030;2023-07-28T12:50:08;2.55;;;1.80;;
21315;SDS011;10817;55.820;13.030;2023-07-28T12:52:36;3.35;;;1.88;;
21315;SDS011;10817;55.820;13.030;2023-07-28T12:55:05;4.80;;;2.55;;
21315;SDS011;10817;55.820;13.030;2023-07-28T12:57:32;3.83;;;1.80;;
21315;SDS011;10817;55.820;13.030;2023-07-28T13:00:02;4.68;;;2.40;;
21315;SDS011;10817;55.820;13.030;2023-07-28T13:02:37;3.95;;;2.10;;
21315;SDS011;10817;55.820;13.030;2023-07-28T13:05:05;4.88;;;2.30;;
21315;SDS011;10817;55.820;13.030;2023-07-28T13:07:32;3.22;;;1.92;;
21315;SDS011;10817;55.820;13.030;2023-07-28T13:09:59;3.97;;;2.20;;
21315;SDS011;10817;55.820;13.030;2023-07-28T13:12:29;3.75;;;2.08;;
21315;SDS011;10817;55.820;13.030;2023-07-28T13:14:56;4.50;;;2.10;;
21315;SDS011;10817;55.820;13.030;2023-07-28T13:17:23;3.15;;;2.38;;
21315;SDS011;10817;55.820;13.030;2023-07-28T13:19:51;2.70;;;1.85;;
21315;SDS011;10817;55.820;13.030;2023-07-28T13:22:18;5.53;;;2.20;;
21315;SDS011;10817;55.820;13.030;2023-07-28T13:24:45;3.67;;;1.80;;
21315;SDS011;10817;55.820;13.030;2023-07-28T13:27:12;5.72;;;2.33;;
21315;SDS011;10817;55.820;13.030;2023-07-28T13:29:41;3.60;;;2.00;;
21315;SDS011;10817;55.820;13.030;2023-07-28T13:32:15;4.22;;;1.88;;
21315;SDS011;10817;55.820;13.030;2023-07-28T13:34:42;4.43;;;2.10;;
21315;SDS011;10817;55.820;13.030;2023-07-28T13:37:10;3.42;;;1.95;;
21315;SDS011;10817;55.820;13.030;2023-07-28T13:39:37;2.88;;;1.80;;
21315;SDS011;10817;55.820;13.030;2023-07-28T13:42:04;2.97;;;1.85;;
21315;SDS011;10817;55.820;13.030;2023-07-28T13:44:31;3.35;;;1.92;;
21315;SDS011;10817;55.820;13.030;2023-07-28T13:47:07;2.70;;;2.13;;
21315;SDS011;10817;55.820;13.030;2023-07-28T13:49:42;6.13;;;2.10;;
21315;SDS011;10817;55.820;13.030;2023-07-28T13:52:09;2.20;;;2.00;;
21315;SDS011;10817;55.820;13.030;2023-07-28T13:54:36;3.72;;;2.13;;
21315;SDS011;10817;55.820;13.030;2023-07-28T13:57:03;3.10;;;1.88;;
21315;SDS011;10817;55.820;13.030;2023-07-28T13:59:31;2.55;;;1.80;;
21315;SDS011;10817;55.820;13.030;2023-07-28T14:01:58;2.42;;;2.00;;
21315;SDS011;10817;55.820;13.030;2023-07-28T14:04:27;3.47;;;1.90;;
21315;SDS011;10817;55.820;13.030;2023-07-28T14:06:54;4.72;;;2.08;;
21315;SDS011;10817;55.820;13.030;2023-07-28T14:09:21;2.78;;;1.98;;
21315;SDS011;10817;55.820;13.030;2023-07-28T14:11:48;4.07;;;2.05;;
21315;SDS011;10817;55.820;13.030;2023-07-28T14:14:16;3.72;;;2.00;;
21315;SDS011;10817;55.820;13.030;2023-07-28T14:16:43;10.00;;;2.17;;
21315;SDS011;10817;55.820;13.030;2023-07-28T14:19:10;3.65;;;2.05;;
21315;SDS011;10817;55.820;13.030;2023-07-28T14:21:39;4.40;;;2.10;;
21315;SDS011;10817;55.820;13.030;2023-07-28T14:24:06;5.50;;;2.30;;
21315;SDS011;10817;55.820;13.030;2023-07-28T14:26:33;4.13;;;1.70;;
21315;SDS011;10817;55.820;13.030;2023-07-28T14:29:00;2.90;;;1.80;;
21315;SDS011;10817;55.820;13.030;2023-07-28T14:31:27;2.72;;;2.00;;
21315;SDS011;10817;55.820;13.030;2023-07-28T14:33:54;2.13;;;1.92;;
21315;SDS011;10817;55.820;13.030;2023-07-28T14:36:21;3.40;;;2.00;;